Time,TemperatureF,DewpointF,PressureIn,WindDirection,WindDirectionDegrees,WindSpeedMPH,WindSpeedGustMPH,Humidity,HourlyPrecipIn,Conditions,Clouds,dailyrainin,SolarRadiationWatts/m^2,SoftwareType,DateUTC
2013-01-03 00:00:00,2.5,-7.2,30.64,NNW,343,1.0,-999.0,73,-99.99,,,0.01,0.0,cwc,2013-01-03 07:00:00,
2013-01-03 00:05:00,1.8,-7.9,30.64,NNW,343,0.0,-999.0,73,-99.99,,,0.00,0.0,cwc,2013-01-03 07:05:00,
2013-01-03 00:10:00,1.3,-8.1,30.64,NNW,342,0.0,-999.0,74,-99.99,,,0.00,0.0,cwc,2013-01-03 07:10:00,
2013-01-03 00:15:00,1.0,-8.0,30.65,NNW,343,1.0,-999.0,75,-99.99,,,0.00,0.0,cwc,2013-01-03 07:15:00,
2013-01-03 00:20:00,0.6,-8.8,30.65,NNW,343,2.0,-999.0,74,-99.99,,,0.00,0.0,cwc,2013-01-03 07:20:00,
2013-01-03 00:25:00,0.2,-8.8,30.65,NNW,343,1.0,-999.0,75,-99.99,,,0.00,0.0,cwc,2013-01-03 07:25:00,
2013-01-03 00:30:00,-0.1,-8.7,30.65,NNW,343,2.0,-999.0,76,-99.99,,,0.00,0.0,cwc,2013-01-03 07:30:00,
2013-01-03 00:35:00,-0.3,-8.6,30.65,NNW,343,0.0,-999.0,77,-99.99,,,0.00,0.0,cwc,2013-01-03 07:35:00,
2013-01-03 00:40:00,-0.5,-9.5,30.65,NNW,343,0.0,-999.0,75,-99.99,,,0.00,0.0,cwc,2013-01-03 07:40:00,
2013-01-03 00:45:00,-0.9,-9.9,30.66,NNW,343,1.0,-999.0,75,-99.99,,,0.00,0.0,cwc,2013-01-03 07:45:00,
2013-01-03 00:50:00,-1.4,-9.7,30.66,NNW,342,0.0,-999.0,77,-99.99,,,0.00,0.0,cwc,2013-01-03 07:50:00,
2013-01-03 00:55:00,-1.7,-10.3,30.66,NNW,343,0.0,-999.0,76,-99.99,,,0.00,0.0,cwc,2013-01-03 07:55:00,
2013-01-03 01:00:00,-1.8,-9.7,30.66,NNW,343,3.0,-999.0,78,-99.99,,,0.00,0.0,cwc,2013-01-03 08:00:00,
2013-01-03 01:05:00,-1.7,-9.3,30.66,NNW,343,0.0,-999.0,79,-99.99,,,0.00,0.0,cwc,2013-01-03 08:05:00,
2013-01-03 01:10:00,-1.9,-9.8,30.67,NNW,342,1.0,-999.0,78,-99.99,,,0.00,0.0,cwc,2013-01-03 08:10:00,
2013-01-03 01:15:00,-2.1,-10.0,30.67,NNW,343,2.0,-999.0,78,-99.99,,,0.00,0.0,cwc,2013-01-03 08:15:00,
2013-01-03 01:20:00,-2.3,-10.2,30.67,NNW,343,0.0,-999.0,78,-99.99,,,0.00,0.0,cwc,2013-01-03 08:20:00,
2013-01-03 01:25:00,-2.4,-10.3,30.68,NNW,342,0.0,-999.0,78,-99.99,,,0.00,0.0,cwc,2013-01-03 08:25:00,
2013-01-03 01:30:00,-2.5,-10.1,30.68,NNW,343,0.0,-999.0,79,-99.99,,,0.00,0.0,cwc,2013-01-03 08:30:00,
2013-01-03 01:40:00,-2.1,-8.9,30.68,NNW,341,2.0,-999.0,81,-99.99,,,0.00,0.0,cwc,2013-01-03 08:40:00,
2013-01-03 01:45:00,-1.7,-8.2,30.68,NNW,340,5.0,-999.0,82,-99.99,,,0.00,0.0,cwc,2013-01-03 08:45:00,
2013-01-03 01:50:00,0.9,-5.9,30.69,North,350,2.0,-999.0,81,-99.99,,,0.00,0.0,cwc,2013-01-03 08:50:00,
2013-01-03 01:55:00,1.5,-7.1,30.69,North,350,6.0,-999.0,76,-99.99,,,0.00,0.0,cwc,2013-01-03 08:55:00,
2013-01-03 02:00:00,2.2,-6.8,30.69,North,355,5.0,-999.0,75,-99.99,,,0.00,0.0,cwc,2013-01-03 09:00:00,
2013-01-03 02:10:00,3.1,-7.0,30.69,North,9,4.0,-999.0,72,-99.99,,,0.00,0.0,cwc,2013-01-03 09:10:00,
2013-01-03 02:15:00,3.1,-7.3,30.69,NNW,337,3.0,-999.0,71,-99.99,,,0.00,0.0,cwc,2013-01-03 09:15:00,
2013-01-03 02:20:00,3.1,-7.3,30.69,NNW,336,2.0,-999.0,71,-99.99,,,0.00,0.0,cwc,2013-01-03 09:20:00,
2013-01-03 02:30:00,3.4,-7.0,30.69,NNW,331,5.0,-999.0,71,-99.99,,,0.00,0.0,cwc,2013-01-03 09:30:00,
2013-01-03 02:35:00,3.5,-6.9,30.70,NNW,331,3.0,-999.0,71,-99.99,,,0.00,0.0,cwc,2013-01-03 09:35:00,
2013-01-03 02:45:00,2.3,-8.9,30.70,NNW,331,0.0,-999.0,69,-99.99,,,0.00,0.0,cwc,2013-01-03 09:45:00,
2013-01-03 02:50:00,1.6,-9.6,30.70,NNW,331,1.0,-999.0,69,-99.99,,,0.00,0.0,cwc,2013-01-03 09:50:00,
2013-01-03 02:55:00,1.1,-9.7,30.70,NNW,330,6.0,-999.0,70,-99.99,,,0.00,0.0,cwc,2013-01-03 09:55:00,
2013-01-03 03:00:00,1.4,-8.3,30.71,NNW,331,2.0,-999.0,73,-99.99,,,0.00,0.0,cwc,2013-01-03 10:00:00,
2013-01-03 03:05:00,2.0,-7.7,30.70,NNW,327,4.0,-999.0,73,-99.99,,,0.00,0.0,cwc,2013-01-03 10:05:00,
2013-01-03 03:10:00,2.6,-7.5,30.71,NNW,327,4.0,-999.0,72,-99.99,,,0.00,0.0,cwc,2013-01-03 10:10:00,
2013-01-03 03:15:00,2.8,-8.0,30.71,NW,326,2.0,-999.0,70,-99.99,,,0.00,0.0,cwc,2013-01-03 10:15:00,
2013-01-03 03:20:00,2.6,-9.3,30.71,NW,326,1.0,-999.0,67,-99.99,,,0.00,0.0,cwc,2013-01-03 10:20:00,
2013-01-03 03:25:00,2.0,-9.2,30.71,NW,325,1.0,-999.0,69,-99.99,,,0.00,0.0,cwc,2013-01-03 10:25:00,
2013-01-03 03:30:00,1.3,-10.6,30.71,NW,325,2.0,-999.0,67,-99.99,,,0.00,0.0,cwc,2013-01-03 10:30:00,
2013-01-03 03:35:00,0.8,-10.7,30.71,NW,325,4.0,-999.0,68,-99.99,,,0.00,0.0,cwc,2013-01-03 10:35:00,
2013-01-03 03:40:00,-0.3,-10.7,30.71,NW,325,2.0,-999.0,71,-99.99,,,0.00,0.0,cwc,2013-01-03 10:40:00,
2013-01-03 03:45:00,-1.2,-12.4,30.71,NW,325,2.0,-999.0,69,-99.99,,,0.00,0.0,cwc,2013-01-03 10:45:00,
2013-01-03 03:50:00,-2.1,-12.5,30.72,NW,325,3.0,-999.0,71,-99.99,,,0.00,0.0,cwc,2013-01-03 10:50:00,
2013-01-03 03:55:00,-2.8,-12.5,30.72,NW,325,1.0,-999.0,73,-99.99,,,0.00,0.0,cwc,2013-01-03 10:55:00,
2013-01-03 04:00:00,-3.4,-13.5,30.72,NW,325,2.0,-999.0,72,-99.99,,,0.00,0.0,cwc,2013-01-03 11:00:00,
2013-01-03 04:05:00,-4.1,-14.2,30.72,NW,325,2.0,-999.0,72,-99.99,,,0.00,0.0,cwc,2013-01-03 11:05:00,
2013-01-03 04:10:00,-4.8,-14.9,30.72,NW,325,2.0,-999.0,72,-99.99,,,0.00,0.0,cwc,2013-01-03 11:10:00,
2013-01-03 04:15:00,-5.3,-14.7,30.72,NW,325,1.0,-999.0,74,-99.99,,,0.00,0.0,cwc,2013-01-03 11:15:00,
2013-01-03 04:20:00,-5.3,-13.6,30.72,NW,325,0.0,-999.0,77,-99.99,,,0.00,0.0,cwc,2013-01-03 11:20:00,
2013-01-03 04:25:00,-5.2,-13.5,30.73,NW,325,3.0,-999.0,77,-99.99,,,0.00,0.0,cwc,2013-01-03 11:25:00,
2013-01-03 04:30:00,-5.4,-13.7,30.73,NW,325,1.0,-999.0,77,-99.99,,,0.00,0.0,cwc,2013-01-03 11:30:00,
2013-01-03 04:35:00,-5.3,-12.9,30.73,NW,325,2.0,-999.0,79,-99.99,,,0.00,0.0,cwc,2013-01-03 11:35:00,
2013-01-03 04:45:00,-6.0,-14.6,30.73,NW,326,1.0,-999.0,76,-99.99,,,0.00,0.0,cwc,2013-01-03 11:45:00,
2013-01-03 04:50:00,-5.9,-14.2,30.73,NW,326,0.0,-999.0,77,-99.99,,,0.00,0.0,cwc,2013-01-03 11:50:00,
2013-01-03 05:00:00,-6.2,-14.1,30.73,NW,326,1.0,-999.0,78,-99.99,,,0.00,0.0,cwc,2013-01-03 12:00:00,
2013-01-03 05:05:00,-6.4,-14.7,30.74,NNW,327,0.0,-999.0,77,-99.99,,,0.00,0.0,cwc,2013-01-03 12:05:00,
2013-01-03 05:10:00,-6.6,-15.2,30.74,NNW,327,0.0,-999.0,76,-99.99,,,0.00,0.0,cwc,2013-01-03 12:10:00,
2013-01-03 05:15:00,-6.8,-15.1,30.74,NW,326,2.0,-999.0,77,-99.99,,,0.00,0.0,cwc,2013-01-03 12:15:00,
2013-01-03 05:20:00,-7.0,-15.3,30.74,NNW,327,0.0,-999.0,77,-99.99,,,0.00,0.0,cwc,2013-01-03 12:20:00,
2013-01-03 05:25:00,-7.1,-15.4,30.74,NNW,327,1.0,-999.0,77,-99.99,,,0.00,0.0,cwc,2013-01-03 12:25:00,
2013-01-03 05:30:00,-6.7,-13.9,30.74,NW,326,1.0,-999.0,80,-99.99,,,0.00,0.0,cwc,2013-01-03 12:30:00,
2013-01-03 05:35:00,-6.5,-13.7,30.74,NNW,327,1.0,-999.0,80,-99.99,,,0.00,0.0,cwc,2013-01-03 12:35:00,
2013-01-03 05:40:00,-6.1,-13.3,30.75,NNW,327,0.0,-999.0,80,-99.99,,,0.00,0.0,cwc,2013-01-03 12:40:00,
2013-01-03 05:45:00,-6.2,-14.1,30.75,NW,326,1.0,-999.0,78,-99.99,,,0.00,0.0,cwc,2013-01-03 12:45:00,
2013-01-03 05:50:00,-6.4,-14.0,30.75,NW,326,2.0,-999.0,79,-99.99,,,0.00,0.0,cwc,2013-01-03 12:50:00,
2013-01-03 05:55:00,-6.3,-14.6,30.75,NNW,327,0.0,-999.0,77,-99.99,,,0.00,0.0,cwc,2013-01-03 12:55:00,
2013-01-03 06:00:00,-6.4,-14.3,30.76,NW,326,4.0,-999.0,78,-99.99,,,0.00,0.0,cwc,2013-01-03 13:00:00,
2013-01-03 06:05:00,-5.4,-12.2,30.76,NW,326,5.0,-999.0,81,-99.99,,,0.00,0.0,cwc,2013-01-03 13:05:00,
2013-01-03 06:10:00,-3.9,-10.7,30.76,NNW,334,1.0,-999.0,81,-99.99,,,0.00,0.0,cwc,2013-01-03 13:10:00,
2013-01-03 06:15:00,-3.2,-10.8,30.76,NW,323,4.0,-999.0,79,-99.99,,,0.00,0.0,cwc,2013-01-03 13:15:00,
2013-01-03 06:20:00,-2.4,-10.7,30.76,NNW,330,2.0,-999.0,77,-99.99,,,0.00,0.0,cwc,2013-01-03 13:20:00,
2013-01-03 06:25:00,-2.1,-10.4,30.76,NNW,338,0.0,-999.0,77,-99.99,,,0.00,0.0,cwc,2013-01-03 13:25:00,
2013-01-03 06:30:00,-2.4,-12.8,30.76,NNW,337,4.0,-999.0,71,-99.99,,,0.00,0.0,cwc,2013-01-03 13:30:00,
2013-01-03 06:35:00,-3.3,-14.5,30.77,NNW,338,1.0,-999.0,69,-99.99,,,0.00,0.0,cwc,2013-01-03 13:35:00,
2013-01-03 06:40:00,-4.0,-13.7,30.77,NNW,337,2.0,-999.0,73,-99.99,,,0.00,0.0,cwc,2013-01-03 13:40:00,
2013-01-03 06:45:00,-3.5,-11.4,30.77,NNW,337,2.0,-999.0,78,-99.99,,,0.00,0.0,cwc,2013-01-03 13:45:00,
2013-01-03 06:50:00,-2.4,-10.7,30.77,NW,313,2.0,-999.0,77,-99.99,,,0.00,0.0,cwc,2013-01-03 13:50:00,
2013-01-03 06:55:00,-1.7,-10.3,30.77,NNW,336,3.0,-999.0,76,-99.99,,,0.00,0.0,cwc,2013-01-03 13:55:00,
2013-01-03 07:05:00,-0.7,-10.4,30.77,NNW,345,2.0,-999.0,73,-99.99,,,0.00,0.0,cwc,2013-01-03 14:05:00,
2013-01-03 07:10:00,-0.9,-11.3,30.77,NNW,345,3.0,-999.0,71,-99.99,,,0.00,0.0,cwc,2013-01-03 14:10:00,
2013-01-03 07:15:00,-2.3,-14.2,30.77,NNW,345,2.0,-999.0,67,-99.99,,,0.00,0.0,cwc,2013-01-03 14:15:00,
2013-01-03 07:25:00,-4.3,-15.1,30.77,NNW,345,0.0,-999.0,70,-99.99,,,0.00,7.0,cwc,2013-01-03 14:25:00,
2013-01-03 07:30:00,-4.8,-15.2,30.77,NNW,345,0.0,-999.0,71,-99.99,,,0.00,9.0,cwc,2013-01-03 14:30:00,
2013-01-03 07:35:00,-5.3,-15.4,30.77,NNW,345,0.0,-999.0,72,-99.99,,,0.00,11.0,cwc,2013-01-03 14:35:00,
2013-01-03 07:40:00,-5.6,-15.3,30.77,NNW,345,0.0,-999.0,73,-99.99,,,0.00,21.0,cwc,2013-01-03 14:40:00,
2013-01-03 07:45:00,-5.7,-15.1,30.77,NNW,345,0.0,-999.0,74,-99.99,,,0.00,32.0,cwc,2013-01-03 14:45:00,
2013-01-03 07:55:00,-5.4,-14.0,30.77,NNW,345,0.0,-999.0,76,-99.99,,,0.00,63.0,cwc,2013-01-03 14:55:00,
2013-01-03 08:00:00,-5.1,-13.4,30.77,NNW,345,0.0,-999.0,77,-99.99,,,0.00,79.0,cwc,2013-01-03 15:00:00,
2013-01-03 08:05:00,-4.6,-13.2,30.77,NNW,345,0.0,-999.0,76,-99.99,,,0.00,90.0,cwc,2013-01-03 15:05:00,
2013-01-03 08:10:00,-4.3,-13.3,30.77,NNW,345,0.0,-999.0,75,-99.99,,,0.00,105.0,cwc,2013-01-03 15:10:00,
2013-01-03 08:15:00,-4.2,-13.2,30.77,NNW,345,0.0,-999.0,75,-99.99,,,0.00,121.0,cwc,2013-01-03 15:15:00,
2013-01-03 08:20:00,-3.9,-12.9,30.77,NNW,344,2.0,-999.0,75,-99.99,,,0.00,139.0,cwc,2013-01-03 15:20:00,
2013-01-03 08:25:00,-3.5,-12.1,30.77,NNW,344,0.0,-999.0,76,-99.99,,,0.00,155.0,cwc,2013-01-03 15:25:00,
2013-01-03 08:30:00,-2.8,-11.1,30.78,NNW,344,3.0,-999.0,77,-99.99,,,0.00,169.0,cwc,2013-01-03 15:30:00,
2013-01-03 08:35:00,-2.0,-9.9,30.77,NNW,340,4.0,-999.0,78,-99.99,,,0.00,186.0,cwc,2013-01-03 15:35:00,
2013-01-03 08:45:00,0.9,-8.1,30.77,NNW,344,3.0,-999.0,75,-99.99,,,0.00,218.0,cwc,2013-01-03 15:45:00,
2013-01-03 08:50:00,2.1,-7.6,30.78,North,351,2.0,-999.0,73,-99.99,,,0.00,237.0,cwc,2013-01-03 15:50:00,
2013-01-03 08:55:00,3.3,-7.1,30.78,North,360,4.0,-999.0,71,-99.99,,,0.00,255.0,cwc,2013-01-03 15:55:00,
2013-01-03 09:00:00,4.1,-7.1,30.78,NNE,12,4.0,-999.0,69,-99.99,,,0.00,271.0,cwc,2013-01-03 16:00:00,
2013-01-03 09:05:00,4.6,-7.3,30.78,North,10,5.0,-999.0,67,-99.99,,,0.00,287.0,cwc,2013-01-03 16:05:00,
2013-01-03 09:10:00,5.0,-6.9,30.78,NNE,13,1.0,-999.0,67,-99.99,,,0.00,302.0,cwc,2013-01-03 16:10:00,
2013-01-03 09:15:00,5.6,-6.3,30.78,NNE,13,0.0,-999.0,67,-99.99,,,0.00,311.0,cwc,2013-01-03 16:15:00,
2013-01-03 09:25:00,6.5,-6.1,30.78,NNE,13,1.0,-999.0,65,-99.99,,,0.00,341.0,cwc,2013-01-03 16:25:00,
2013-01-03 09:30:00,7.2,-5.0,30.78,NNE,13,0.0,-999.0,66,-99.99,,,0.00,353.0,cwc,2013-01-03 16:30:00,
2013-01-03 09:35:00,8.2,-4.0,30.78,NNE,13,1.0,-999.0,66,-99.99,,,0.00,364.0,cwc,2013-01-03 16:35:00,
2013-01-03 09:40:00,9.2,-4.1,30.78,NNE,13,0.0,-999.0,63,-99.99,,,0.00,378.0,cwc,2013-01-03 16:40:00,
2013-01-03 09:45:00,10.0,-4.4,30.78,NNE,18,2.0,-999.0,60,-99.99,,,0.00,388.0,cwc,2013-01-03 16:45:00,
2013-01-03 09:50:00,10.5,-4.3,30.78,NE,50,6.0,-999.0,59,-99.99,,,0.00,399.0,cwc,2013-01-03 16:50:00,
2013-01-03 09:55:00,10.7,-4.1,30.78,NE,46,6.0,-999.0,59,-99.99,,,0.00,411.0,cwc,2013-01-03 16:55:00,
2013-01-03 10:00:00,10.8,-4.3,30.77,NE,42,6.0,-999.0,58,-99.99,,,0.00,422.0,cwc,2013-01-03 17:00:00,
2013-01-03 10:05:00,11.0,-3.8,30.77,North,11,5.0,-999.0,59,-99.99,,,0.00,429.0,cwc,2013-01-03 17:05:00,
2013-01-03 10:15:00,12.1,-2.7,30.77,NNE,13,3.0,-999.0,59,-99.99,,,0.00,450.0,cwc,2013-01-03 17:15:00,
2013-01-03 10:20:00,12.6,-2.5,30.77,NNE,13,2.0,-999.0,58,-99.99,,,0.00,459.0,cwc,2013-01-03 17:20:00,
2013-01-03 10:25:00,13.3,-2.2,30.77,NNE,14,4.0,-999.0,57,-99.99,,,0.00,466.0,cwc,2013-01-03 17:25:00,
2013-01-03 10:30:00,13.7,-2.1,30.77,NNE,13,3.0,-999.0,56,-99.99,,,0.00,476.0,cwc,2013-01-03 17:30:00,
2013-01-03 10:40:00,14.4,-1.4,30.76,NNE,17,2.0,-999.0,56,-99.99,,,0.00,492.0,cwc,2013-01-03 17:40:00,
2013-01-03 10:45:00,15.0,-1.2,30.75,NNE,17,0.0,-999.0,55,-99.99,,,0.00,501.0,cwc,2013-01-03 17:45:00,
2013-01-03 10:50:00,15.8,-0.8,30.75,NNE,17,0.0,-999.0,54,-99.99,,,0.00,506.0,cwc,2013-01-03 17:50:00,
2013-01-03 10:55:00,16.4,-0.5,30.75,NNE,30,7.0,-999.0,53,-99.99,,,0.00,513.0,cwc,2013-01-03 17:55:00,
2013-01-03 11:00:00,16.4,-0.5,30.74,NNE,32,4.0,-999.0,53,-99.99,,,0.00,520.0,cwc,2013-01-03 18:00:00,
2013-01-03 11:05:00,16.4,-0.5,30.74,NNE,25,6.0,-999.0,53,-99.99,,,0.00,526.0,cwc,2013-01-03 18:05:00,
2013-01-03 11:15:00,16.8,-0.1,30.73,NNE,28,3.0,-999.0,53,-99.99,,,0.00,534.0,cwc,2013-01-03 18:15:00,
2013-01-03 11:20:00,17.2,0.6,30.73,NNE,13,9.0,-999.0,54,-99.99,,,0.00,538.0,cwc,2013-01-03 18:20:00,
2013-01-03 11:25:00,17.4,0.5,30.72,NE,36,3.0,-999.0,53,-99.99,,,0.00,541.0,cwc,2013-01-03 18:25:00,
2013-01-03 11:30:00,17.8,0.9,30.72,NNE,30,6.0,-999.0,53,-99.99,,,0.00,545.0,cwc,2013-01-03 18:30:00,
2013-01-03 11:35:00,18.2,0.9,30.71,ENE,60,8.0,-999.0,52,-99.99,,,0.00,548.0,cwc,2013-01-03 18:35:00,
2013-01-03 11:40:00,18.4,0.8,30.71,ENE,64,12.0,-999.0,51,-99.99,,,0.00,552.0,cwc,2013-01-03 18:40:00,
2013-01-03 11:45:00,18.7,1.8,30.71,NE,36,6.0,-999.0,53,-99.99,,,0.00,554.0,cwc,2013-01-03 18:45:00,
2013-01-03 11:50:00,19.2,1.2,30.70,ENE,64,7.0,-999.0,50,-99.99,,,0.00,555.0,cwc,2013-01-03 18:50:00,
2013-01-03 12:00:00,19.9,2.3,30.69,ENE,66,8.0,-999.0,51,-99.99,,,0.00,559.0,cwc,2013-01-03 19:00:00,
2013-01-03 12:05:00,20.3,2.7,30.69,NE,37,6.0,-999.0,51,-99.99,,,0.00,557.0,cwc,2013-01-03 19:05:00,
2013-01-03 12:15:00,21.1,2.4,30.68,NE,41,6.0,-999.0,48,-99.99,,,0.00,559.0,cwc,2013-01-03 19:15:00,
2013-01-03 13:00:00,24.2,4.8,30.66,NE,37,5.0,-999.0,46,-99.99,,,0.00,538.0,cwc,2013-01-03 20:00:00,
2013-01-03 13:05:00,24.4,4.2,30.66,NE,38,2.0,-999.0,44,-99.99,,,0.00,534.0,cwc,2013-01-03 20:05:00,
2013-01-03 13:10:00,24.6,4.8,30.66,NE,52,6.0,-999.0,45,-99.99,,,0.00,527.0,cwc,2013-01-03 20:10:00,
2013-01-03 13:15:00,24.8,4.6,30.65,NE,48,4.0,-999.0,44,-99.99,,,0.00,522.0,cwc,2013-01-03 20:15:00,
2013-01-03 13:20:00,25.2,5.0,30.65,NE,53,6.0,-999.0,44,-99.99,,,0.00,517.0,cwc,2013-01-03 20:20:00,
2013-01-03 13:25:00,25.3,5.1,30.65,NE,54,3.0,-999.0,44,-99.99,,,0.00,512.0,cwc,2013-01-03 20:25:00,
2013-01-03 13:30:00,25.6,5.4,30.65,NE,54,5.0,-999.0,44,-99.99,,,0.00,506.0,cwc,2013-01-03 20:30:00,
2013-01-03 13:35:00,25.8,5.6,30.64,NE,50,8.0,-999.0,44,-99.99,,,0.00,499.0,cwc,2013-01-03 20:35:00,
2013-01-03 13:40:00,26.0,5.5,30.64,NE,44,3.0,-999.0,43,-99.99,,,0.00,490.0,cwc,2013-01-03 20:40:00,
2013-01-03 13:45:00,26.2,5.7,30.64,NE,47,4.0,-999.0,43,-99.99,,,0.00,482.0,cwc,2013-01-03 20:45:00,
2013-01-03 13:50:00,26.3,5.4,30.64,NE,49,5.0,-999.0,42,-99.99,,,0.00,475.0,cwc,2013-01-03 20:50:00,
2013-01-03 13:55:00,26.6,6.1,30.64,NE,53,3.0,-999.0,43,-99.99,,,0.00,466.0,cwc,2013-01-03 20:55:00,
2013-01-03 14:00:00,26.8,5.9,30.63,ENE,61,4.0,-999.0,42,-99.99,,,0.00,459.0,cwc,2013-01-03 21:00:00,
2013-01-03 14:05:00,27.1,5.9,30.63,ENE,61,4.0,-999.0,41,-99.99,,,0.01,448.0,cwc,2013-01-03 21:05:00,
2013-01-03 14:15:00,27.3,5.7,30.63,NNE,22,3.0,-999.0,40,-99.99,,,0.01,429.0,cwc,2013-01-03 21:15:00,
2013-01-03 14:25:00,27.6,6.4,30.62,NNE,32,4.0,-999.0,41,-99.99,,,0.01,411.0,cwc,2013-01-03 21:25:00,
2013-01-03 14:30:00,27.8,5.8,30.62,NNE,32,4.0,-999.0,39,-99.99,,,0.01,397.0,cwc,2013-01-03 21:30:00,
2013-01-03 14:35:00,28.0,6.0,30.62,NE,40,3.0,-999.0,39,-99.99,,,0.01,394.0,cwc,2013-01-03 21:35:00,
2013-01-03 14:50:00,28.1,5.8,30.62,NE,49,5.0,-999.0,38,-99.99,,,0.01,348.0,cwc,2013-01-03 21:50:00,
2013-01-03 15:00:00,28.0,5.7,30.62,NE,48,3.0,-999.0,38,-99.99,,,0.01,325.0,cwc,2013-01-03 22:00:00,
2013-01-03 15:05:00,28.0,5.3,30.62,NE,45,5.0,-999.0,37,-99.99,,,0.01,308.0,cwc,2013-01-03 22:05:00,
2013-01-03 15:10:00,28.0,5.3,30.62,NNE,31,4.0,-999.0,37,-99.99,,,0.01,302.0,cwc,2013-01-03 22:10:00,
2013-01-03 15:15:00,27.9,4.9,30.62,NNE,23,8.0,-999.0,36,-99.99,,,0.01,278.0,cwc,2013-01-03 22:15:00,
2013-01-03 15:25:00,27.7,4.7,30.61,NNE,22,0.0,-999.0,36,-99.99,,,0.01,236.0,cwc,2013-01-03 22:25:00,
2013-01-03 15:30:00,27.8,4.8,30.61,NNE,22,4.0,-999.0,36,-99.99,,,0.01,223.0,cwc,2013-01-03 22:30:00,
2013-01-03 15:35:00,27.7,4.7,30.61,NNE,22,5.0,-999.0,36,-99.99,,,0.01,202.0,cwc,2013-01-03 22:35:00,
2013-01-03 15:45:00,27.6,4.6,30.61,NE,41,4.0,-999.0,36,-99.99,,,0.01,165.0,cwc,2013-01-03 22:45:00,
2013-01-03 15:50:00,27.4,4.4,30.61,NE,42,2.0,-999.0,36,-99.99,,,0.01,146.0,cwc,2013-01-03 22:50:00,
2013-01-03 15:55:00,27.4,4.0,30.61,NE,41,3.0,-999.0,35,-99.99,,,0.01,127.0,cwc,2013-01-03 22:55:00,
2013-01-03 16:00:00,27.2,3.8,30.61,NE,41,1.0,-999.0,35,-99.99,,,0.02,91.0,cwc,2013-01-03 23:00:00,
2013-01-03 16:05:00,26.9,3.1,30.61,NE,41,1.0,-999.0,34,-99.99,,,0.02,19.0,cwc,2013-01-03 23:05:00,
2013-01-03 16:10:00,26.6,3.2,30.61,NE,40,2.0,-999.0,35,-99.99,,,0.02,18.0,cwc,2013-01-03 23:10:00,
2013-01-03 16:15:00,26.3,2.9,30.61,NE,40,0.0,-999.0,35,-99.99,,,0.02,18.0,cwc,2013-01-03 23:15:00,
2013-01-03 16:25:00,26.1,2.7,30.61,NE,40,1.0,-999.0,35,-99.99,,,0.02,14.0,cwc,2013-01-03 23:25:00,
2013-01-03 16:30:00,26.0,3.0,30.61,NE,40,2.0,-999.0,36,-99.99,,,0.02,14.0,cwc,2013-01-03 23:30:00,
2013-01-03 16:35:00,25.8,2.8,30.61,NE,40,1.0,-999.0,36,-99.99,,,0.02,12.0,cwc,2013-01-03 23:35:00,
2013-01-03 16:45:00,25.5,2.8,30.61,NE,40,1.0,-999.0,37,-99.99,,,0.02,11.0,cwc,2013-01-03 23:45:00,
2013-01-03 16:50:00,24.7,2.4,30.61,NE,40,4.0,-999.0,38,-99.99,,,0.02,9.0,cwc,2013-01-03 23:50:00,
2013-01-03 17:00:00,22.6,1.4,30.62,NE,41,5.0,-999.0,41,-99.99,,,0.02,5.0,cwc,2013-01-04 00:00:00,
2013-01-03 17:10:00,20.6,0.4,30.62,NE,44,4.0,-999.0,44,-99.99,,,0.02,0.0,cwc,2013-01-04 00:10:00,
2013-01-03 17:15:00,19.9,0.5,30.62,NE,44,4.0,-999.0,46,-99.99,,,0.02,0.0,cwc,2013-01-04 00:15:00,
2013-01-03 17:25:00,18.4,-0.3,30.62,NE,44,3.0,-999.0,48,-99.99,,,0.02,0.0,cwc,2013-01-04 00:25:00,
2013-01-03 17:30:00,17.6,-0.8,30.62,NE,44,2.0,-999.0,49,-99.99,,,0.02,0.0,cwc,2013-01-04 00:30:00,
2013-01-03 17:35:00,17.2,-0.8,30.63,NE,44,3.0,-999.0,50,-99.99,,,0.02,0.0,cwc,2013-01-04 00:35:00,
2013-01-03 17:45:00,16.0,-1.3,30.63,NE,44,2.0,-999.0,52,-99.99,,,0.02,0.0,cwc,2013-01-04 00:45:00,
2013-01-03 17:50:00,15.6,-1.3,30.63,NE,44,3.0,-999.0,53,-99.99,,,0.02,0.0,cwc,2013-01-04 00:50:00,
2013-01-03 17:55:00,15.2,-1.7,30.64,NE,46,6.0,-999.0,53,-99.99,,,0.02,0.0,cwc,2013-01-04 00:55:00,
2013-01-03 18:00:00,14.7,-1.9,30.64,South,178,3.0,-999.0,54,-99.99,,,0.02,0.0,cwc,2013-01-04 01:00:00,
2013-01-03 18:05:00,14.6,-2.0,30.65,South,178,1.0,-999.0,54,-99.99,,,0.02,0.0,cwc,2013-01-04 01:05:00,
2013-01-03 18:10:00,15.1,-1.5,30.65,South,178,1.0,-999.0,54,-99.99,,,0.02,0.0,cwc,2013-01-04 01:10:00,
2013-01-03 18:15:00,15.7,-1.2,30.65,South,178,0.0,-999.0,53,-99.99,,,0.02,0.0,cwc,2013-01-04 01:15:00,
2013-01-03 18:20:00,16.6,-1.4,30.65,South,182,3.0,-999.0,50,-99.99,,,0.02,0.0,cwc,2013-01-04 01:20:00,
2013-01-03 18:25:00,17.4,-1.3,30.66,South,182,1.0,-999.0,48,-99.99,,,0.02,0.0,cwc,2013-01-04 01:25:00,
2013-01-03 18:30:00,17.9,-1.2,30.66,NW,323,2.0,-999.0,47,-99.99,,,0.02,0.0,cwc,2013-01-04 01:30:00,
2013-01-03 18:35:00,18.0,-1.4,30.66,NNW,345,2.0,-999.0,46,-99.99,,,0.02,0.0,cwc,2013-01-04 01:35:00,
2013-01-03 18:45:00,17.9,-1.2,30.66,North,351,2.0,-999.0,47,-99.99,,,0.02,0.0,cwc,2013-01-04 01:45:00,
2013-01-03 18:50:00,17.5,-1.6,30.67,North,360,4.0,-999.0,47,-99.99,,,0.02,0.0,cwc,2013-01-04 01:50:00,
2013-01-03 18:55:00,17.1,-2.0,30.67,North,360,4.0,-999.0,47,-99.99,,,0.02,0.0,cwc,2013-01-04 01:55:00,
2013-01-03 19:00:00,16.8,-1.9,30.67,North,5,5.0,-999.0,48,-99.99,,,0.02,0.0,cwc,2013-01-04 02:00:00,
2013-01-03 19:10:00,16.6,-1.8,30.67,North,5,4.0,-999.0,49,-99.99,,,0.02,0.0,cwc,2013-01-04 02:10:00,
2013-01-03 19:15:00,16.3,-2.1,30.67,North,9,6.0,-999.0,49,-99.99,,,0.02,0.0,cwc,2013-01-04 02:15:00,
2013-01-03 19:20:00,16.1,-2.3,30.67,North,360,5.0,-999.0,49,-99.99,,,0.02,0.0,cwc,2013-01-04 02:20:00,
2013-01-03 19:25:00,15.9,-2.5,30.67,North,355,5.0,-999.0,49,-99.99,,,0.02,0.0,cwc,2013-01-04 02:25:00,
2013-01-03 19:30:00,15.6,-2.4,30.68,North,355,4.0,-999.0,50,-99.99,,,0.02,0.0,cwc,2013-01-04 02:30:00,
2013-01-03 19:35:00,15.4,-2.6,30.68,North,355,2.0,-999.0,50,-99.99,,,0.02,0.0,cwc,2013-01-04 02:35:00,
2013-01-03 19:45:00,14.3,-3.3,30.68,North,355,0.0,-999.0,51,-99.99,,,0.02,0.0,cwc,2013-01-04 02:45:00,
2013-01-03 19:50:00,13.5,-4.1,30.68,North,355,3.0,-999.0,51,-99.99,,,0.02,0.0,cwc,2013-01-04 02:50:00,
2013-01-03 19:55:00,13.0,-3.6,30.69,North,355,3.0,-999.0,54,-99.99,,,0.02,0.0,cwc,2013-01-04 02:55:00,
2013-01-03 20:00:00,12.7,-3.9,30.69,North,355,3.0,-999.0,54,-99.99,,,0.02,0.0,cwc,2013-01-04 03:00:00,
2013-01-03 20:05:00,12.5,-3.7,30.69,North,355,3.0,-999.0,55,-99.99,,,0.02,0.0,cwc,2013-01-04 03:05:00,
2013-01-03 20:15:00,12.4,-3.8,30.69,North,355,3.0,-999.0,55,-99.99,,,0.02,0.0,cwc,2013-01-04 03:15:00,
2013-01-03 20:20:00,12.5,-4.1,30.69,North,355,1.0,-999.0,54,-99.99,,,0.02,0.0,cwc,2013-01-04 03:20:00,
2013-01-03 20:25:00,12.5,-4.1,30.69,North,355,1.0,-999.0,54,-99.99,,,0.02,0.0,cwc,2013-01-04 03:25:00,
2013-01-03 20:30:00,12.2,-4.4,30.69,North,355,2.0,-999.0,54,-99.99,,,0.02,0.0,cwc,2013-01-04 03:30:00,
2013-01-03 20:35:00,11.9,-4.7,30.69,North,355,2.0,-999.0,54,-99.99,,,0.02,0.0,cwc,2013-01-04 03:35:00,
2013-01-03 20:40:00,11.6,-4.6,30.69,North,355,3.0,-999.0,55,-99.99,,,0.02,0.0,cwc,2013-01-04 03:40:00,
2013-01-03 20:45:00,11.5,-4.7,30.69,North,355,4.0,-999.0,55,-99.99,,,0.02,0.0,cwc,2013-01-04 03:45:00,
2013-01-03 20:55:00,11.2,-4.6,30.70,North,355,0.0,-999.0,56,-99.99,,,0.02,0.0,cwc,2013-01-04 03:55:00,
2013-01-03 21:00:00,11.1,-4.7,30.70,North,355,4.0,-999.0,56,-99.99,,,0.02,0.0,cwc,2013-01-04 04:00:00,
2013-01-03 21:05:00,10.3,-5.9,30.70,NNW,338,0.0,-999.0,55,-99.99,,,0.02,0.0,cwc,2013-01-04 04:05:00,
2013-01-03 21:10:00,9.6,-6.2,30.70,NNW,338,1.0,-999.0,56,-99.99,,,0.02,0.0,cwc,2013-01-04 04:10:00,
2013-01-03 21:15:00,8.9,-6.6,30.70,NNW,338,0.0,-999.0,57,-99.99,,,0.02,0.0,cwc,2013-01-04 04:15:00,
2013-01-03 21:20:00,8.7,-6.1,30.71,NNW,337,1.0,-999.0,59,-99.99,,,0.02,0.0,cwc,2013-01-04 04:20:00,
2013-01-03 21:25:00,8.0,-7.1,30.71,NNW,337,4.0,-999.0,58,-99.99,,,0.02,0.0,cwc,2013-01-04 04:25:00,
2013-01-03 21:30:00,7.0,-7.0,30.71,NNW,339,2.0,-999.0,61,-99.99,,,0.02,0.0,cwc,2013-01-04 04:30:00,
2013-01-03 21:35:00,6.8,-7.2,30.71,NNW,335,2.0,-999.0,61,-99.99,,,0.02,0.0,cwc,2013-01-04 04:35:00,
2013-01-03 21:40:00,7.0,-6.7,30.71,NNW,335,3.0,-999.0,62,-99.99,,,0.02,0.0,cwc,2013-01-04 04:40:00,
2013-01-03 21:45:00,7.3,-6.7,30.71,North,350,3.0,-999.0,61,-99.99,,,0.02,0.0,cwc,2013-01-04 04:45:00,
2013-01-03 21:50:00,7.3,-6.4,30.72,North,349,3.0,-999.0,62,-99.99,,,0.02,0.0,cwc,2013-01-04 04:50:00,
2013-01-03 21:55:00,7.3,-6.7,30.72,NNW,348,5.0,-999.0,61,-99.99,,,0.02,0.0,cwc,2013-01-04 04:55:00,
2013-01-03 22:05:00,6.9,-7.5,30.72,North,5,2.0,-999.0,60,-99.99,,,0.02,0.0,cwc,2013-01-04 05:05:00,
2013-01-03 22:10:00,6.7,-7.3,30.72,NNW,345,6.0,-999.0,61,-99.99,,,0.02,0.0,cwc,2013-01-04 05:10:00,
2013-01-03 22:15:00,6.7,-7.3,30.72,NNW,344,4.0,-999.0,61,-99.99,,,0.02,0.0,cwc,2013-01-04 05:15:00,
2013-01-03 22:20:00,6.8,-7.2,30.72,North,355,2.0,-999.0,61,-99.99,,,0.02,0.0,cwc,2013-01-04 05:20:00,
2013-01-03 22:25:00,6.8,-7.6,30.73,NNE,19,4.0,-999.0,60,-99.99,,,0.02,0.0,cwc,2013-01-04 05:25:00,
2013-01-03 22:30:00,6.7,-7.7,30.72,North,5,4.0,-999.0,60,-99.99,,,0.02,0.0,cwc,2013-01-04 05:30:00,
2013-01-03 22:35:00,6.5,-7.9,30.73,North,5,6.0,-999.0,60,-99.99,,,0.02,0.0,cwc,2013-01-04 05:35:00,
2013-01-03 22:40:00,6.3,-8.1,30.73,North,355,2.0,-999.0,60,-99.99,,,0.02,0.0,cwc,2013-01-04 05:40:00,
2013-01-03 22:45:00,6.1,-8.3,30.73,North,355,3.0,-999.0,60,-99.99,,,0.02,0.0,cwc,2013-01-04 05:45:00,
2013-01-03 22:50:00,5.7,-8.3,30.73,North,355,4.0,-999.0,61,-99.99,,,0.02,0.0,cwc,2013-01-04 05:50:00,
2013-01-03 23:00:00,5.4,-7.9,30.73,NW,310,4.0,-999.0,63,-99.99,,,0.02,0.0,cwc,2013-01-04 06:00:00,
2013-01-03 23:05:00,5.2,-8.5,30.73,NW,325,4.0,-999.0,62,-99.99,,,0.02,0.0,cwc,2013-01-04 06:05:00,
2013-01-03 23:10:00,5.0,-8.7,30.73,NNW,347,7.0,-999.0,62,-99.99,,,0.02,0.0,cwc,2013-01-04 06:10:00,
2013-01-03 23:15:00,5.0,-5.4,30.73,NNW,333,3.0,-999.0,71,-99.99,,,0.02,0.0,cwc,2013-01-04 06:15:00,
2013-01-03 23:20:00,4.9,-5.9,30.73,NNW,340,5.0,-999.0,70,-99.99,,,0.02,0.0,cwc,2013-01-04 06:20:00,
2013-01-03 23:25:00,4.9,-9.1,30.73,NNW,339,2.0,-999.0,61,-99.99,,,0.02,0.0,cwc,2013-01-04 06:25:00,
2013-01-03 23:30:00,4.5,-8.8,30.73,NNW,338,2.0,-999.0,63,-99.99,,,0.02,0.0,cwc,2013-01-04 06:30:00,
2013-01-03 23:35:00,4.4,-8.6,30.73,NNW,343,3.0,-999.0,64,-99.99,,,0.02,0.0,cwc,2013-01-04 06:35:00,
2013-01-03 23:40:00,4.2,-8.8,30.73,NNW,342,4.0,-999.0,64,-99.99,,,0.02,0.0,cwc,2013-01-04 06:40:00,
2013-01-03 23:45:00,4.0,-9.0,30.73,NNW,340,6.0,-999.0,64,-99.99,,,0.02,0.0,cwc,2013-01-04 06:45:00,
2013-01-03 23:50:00,3.8,-9.2,30.73,NNW,335,2.0,-999.0,64,-99.99,,,0.02,0.0,cwc,2013-01-04 06:50:00,
2013-01-03 23:55:00,2.8,-10.5,30.73,NNW,334,1.0,-999.0,63,-99.99,,,0.02,0.0,cwc,2013-01-04 06:55:00,